createdAt,value
2023-04-18T00:00:01.976Z,78
2023-04-18T00:00:32.194Z,78
2023-04-18T00:01:04.058Z,78
2023-04-18T00:01:34.386Z,78
2023-04-18T00:01:52.165Z,78
2023-04-18T00:02:24.961Z,78
2023-04-18T00:02:42.332Z,78
2023-04-18T00:03:12.216Z,78
2023-04-18T00:03:34.492Z,78
2023-04-18T00:04:00.958Z,78
2023-04-18T00:04:32.304Z,78
2023-04-18T00:05:04.500Z,78
2023-04-18T00:05:34.403Z,78
2023-04-18T00:05:52.264Z,78
2023-04-18T00:06:24.891Z,78
2023-04-18T00:06:42.073Z,78
2023-04-18T00:07:12.072Z,78
2023-04-18T00:07:34.343Z,78
2023-04-18T00:08:00.076Z,77
2023-04-18T00:08:32.996Z,77
2023-04-18T00:09:04.339Z,77
2023-04-18T00:09:35.558Z,77
2023-04-18T00:09:52.060Z,77
2023-04-18T00:10:24.289Z,77
2023-04-18T00:10:41.312Z,77
2023-04-18T00:11:13.091Z,77
2023-04-18T00:11:34.359Z,77
2023-04-18T00:12:00.091Z,77
2023-04-18T00:12:33.059Z,77
2023-04-18T00:13:04.195Z,77
2023-04-18T00:13:34.387Z,77
2023-04-18T00:13:52.897Z,77
2023-04-18T00:14:24.097Z,77
2023-04-18T00:14:41.352Z,77
2023-04-18T00:15:13.128Z,77
2023-04-18T00:15:34.300Z,77
2023-04-18T00:16:00.240Z,77
2023-04-18T00:16:33.030Z,77
2023-04-18T00:17:04.107Z,77
2023-04-18T00:17:34.392Z,77
2023-04-18T00:17:52.943Z,77
2023-04-18T00:18:24.052Z,77
2023-04-18T00:18:41.265Z,77
2023-04-18T00:19:12.762Z,77
2023-04-18T00:19:34.368Z,77
2023-04-18T00:20:00.072Z,77
2023-04-18T00:20:33.130Z,77
2023-04-18T00:21:04.058Z,77
2023-04-18T00:21:35.117Z,77
2023-04-18T00:22:08.302Z,77
2023-04-18T00:22:34.457Z,77
2023-04-18T00:22:57.031Z,77
2023-04-18T00:23:28.251Z,77
2023-04-18T00:24:00.174Z,77
2023-04-18T00:24:32.230Z,77
2023-04-18T00:25:04.276Z,77
2023-04-18T00:25:34.371Z,77
2023-04-18T00:25:52.249Z,78
2023-04-18T00:26:24.911Z,78
2023-04-18T00:26:42.136Z,78
2023-04-18T00:27:12.182Z,78
2023-04-18T00:27:34.326Z,78
2023-04-18T00:28:00.942Z,78
2023-04-18T00:28:32.190Z,78
2023-04-18T00:29:04.993Z,78
2023-04-18T00:29:34.450Z,78
2023-04-18T00:29:52.063Z,78
2023-04-18T00:30:24.510Z,78
2023-04-18T00:30:41.328Z,78
2023-04-18T00:31:12.967Z,78
2023-04-18T00:31:34.393Z,78
2023-04-18T00:32:00.162Z,78
2023-04-18T00:32:33.075Z,78
2023-04-18T00:33:04.109Z,78
2023-04-18T00:33:34.721Z,78
2023-04-18T00:33:52.847Z,78
2023-04-18T00:34:24.030Z,78
2023-04-18T00:34:41.318Z,78
2023-04-18T00:35:13.132Z,78
2023-04-18T00:35:34.353Z,78
2023-04-18T00:36:00.199Z,78
2023-04-18T00:36:32.190Z,78
2023-04-18T00:37:04.144Z,78
2023-04-18T00:37:34.356Z,78
2023-04-18T00:37:52.108Z,78
2023-04-18T00:38:24.973Z,78
2023-04-18T00:38:42.153Z,78
2023-04-18T00:39:12.145Z,78
2023-04-18T00:39:34.390Z,78
2023-04-18T00:40:00.350Z,79
2023-04-18T00:40:33.080Z,79
2023-04-18T00:41:04.253Z,79
2023-04-18T00:41:34.383Z,79
2023-04-18T00:41:52.952Z,79
2023-04-18T00:42:24.137Z,79
2023-04-18T00:42:41.433Z,79
2023-04-18T00:43:12.912Z,79
2023-04-18T00:43:34.434Z,79
2023-04-18T00:44:00.145Z,79
2023-04-18T00:44:32.872Z,79
2023-04-18T00:45:04.420Z,79
2023-04-18T00:45:34.338Z,79
2023-04-18T00:45:53.009Z,79
2023-04-18T00:46:24.096Z,79
2023-04-18T00:46:41.489Z,79
2023-04-18T00:47:12.188Z,79
2023-04-18T00:47:34.542Z,79
2023-04-18T00:48:01.298Z,79
2023-04-18T00:48:32.312Z,79
2023-04-18T00:49:04.140Z,80
2023-04-18T00:49:34.847Z,80
2023-04-18T00:49:52.101Z,80
2023-04-18T00:50:25.047Z,80
2023-04-18T00:50:42.138Z,80
2023-04-18T00:51:12.193Z,80
2023-04-18T00:51:34.418Z,80
2023-04-18T00:52:00.894Z,80
2023-04-18T00:52:32.114Z,80
2023-04-18T00:53:04.091Z,80
2023-04-18T00:53:34.494Z,80
2023-04-18T00:53:52.103Z,80
2023-04-18T00:54:24.857Z,80
2023-04-18T00:54:42.015Z,80
2023-04-18T00:55:12.286Z,81
2023-04-18T00:55:34.769Z,80
2023-04-18T00:56:00.819Z,80
2023-04-18T00:56:32.067Z,80
2023-04-18T00:57:04.092Z,80
2023-04-18T00:57:34.597Z,81
2023-04-18T00:57:52.092Z,80
2023-04-18T00:58:24.775Z,80
2023-04-18T00:58:41.936Z,80
2023-04-18T00:59:28.083Z,80
2023-04-18T01:00:01.485Z,80
2023-04-18T01:00:32.127Z,80
2023-04-18T01:01:04.157Z,80
2023-04-18T01:02:08.130Z,80
2023-04-18T01:02:35.621Z,80
2023-04-18T01:02:56.453Z,80
2023-04-18T01:03:29.274Z,80
2023-04-18T01:04:00.240Z,80
2023-04-18T01:04:32.262Z,80
2023-04-18T01:05:04.330Z,80
2023-04-18T01:05:34.665Z,80
2023-04-18T01:05:53.160Z,80
2023-04-18T01:06:24.165Z,80
2023-04-18T01:06:41.296Z,80
2023-04-18T01:07:12.748Z,80
2023-04-18T01:07:34.355Z,80
2023-04-18T01:08:00.167Z,80
2023-04-18T01:09:01.553Z,79
2023-04-18T01:09:29.325Z,79
2023-04-18T01:09:53.749Z,79
2023-04-18T01:10:24.229Z,79
2023-04-18T01:10:42.157Z,79
2023-04-18T01:11:12.132Z,79
2023-04-18T01:11:34.580Z,79
2023-04-18T01:12:01.387Z,79
2023-04-18T01:12:36.960Z,79
2023-04-18T01:13:22.917Z,79
2023-04-18T01:13:46.575Z,79
2023-04-18T01:14:11.798Z,79
2023-04-18T01:14:41.169Z,79
2023-04-18T01:15:19.476Z,79
2023-04-18T01:15:41.714Z,79
2023-04-18T01:16:04.364Z,79
2023-04-18T01:16:32.128Z,79
2023-04-18T01:17:10.210Z,79
2023-04-18T01:17:35.264Z,79
2023-04-18T01:17:58.077Z,79
2023-04-18T01:18:40.543Z,79
2023-04-18T01:19:18.177Z,79
2023-04-18T01:19:41.098Z,79
2023-04-18T01:20:03.703Z,79
2023-04-18T01:20:32.118Z,79
2023-04-18T01:21:11.198Z,79
2023-04-18T01:21:36.484Z,79
2023-04-18T01:22:14.306Z,79
2023-04-18T01:22:40.332Z,79
2023-04-18T01:23:12.120Z,79
2023-04-18T01:23:35.187Z,78
2023-04-18T01:24:06.104Z,78
2023-04-18T01:24:32.126Z,78
2023-04-18T01:25:04.232Z,78
2023-04-18T01:25:43.898Z,78
2023-04-18T01:26:08.112Z,77
2023-04-18T01:26:45.621Z,77
2023-04-18T01:27:17.889Z,77
2023-04-18T01:27:35.289Z,77
2023-04-18T01:28:00.139Z,77
2023-04-18T01:28:32.190Z,77
2023-04-18T01:29:04.184Z,77
2023-04-18T01:29:41.230Z,77
2023-04-18T01:30:08.386Z,77
2023-04-18T01:30:40.355Z,77
2023-04-18T01:31:18.534Z,77
2023-04-18T01:31:50.488Z,77
2023-04-18T01:32:16.285Z,77
2023-04-18T01:32:45.668Z,77
2023-04-18T01:33:10.069Z,77
2023-04-18T01:33:34.507Z,77
2023-04-18T01:33:57.147Z,77
2023-04-18T01:34:24.103Z,77
2023-04-18T01:34:42.418Z,77
2023-04-18T01:35:12.313Z,77
2023-04-18T01:35:35.202Z,78
2023-04-18T01:36:00.151Z,78
2023-04-18T01:36:38.165Z,78
2023-04-18T01:37:10.294Z,77
2023-04-18T01:37:41.097Z,77
2023-04-18T01:38:14.040Z,78
2023-04-18T01:38:37.014Z,78
2023-04-18T01:38:59.300Z,78
2023-04-18T01:39:33.875Z,77
2023-04-18T01:40:06.450Z,77
2023-04-18T01:40:37.265Z,78
2023-04-18T01:41:10.064Z,78
2023-04-18T01:41:40.587Z,77
2023-04-18T01:42:08.173Z,77
2023-04-18T01:42:34.665Z,77
2023-04-18T01:42:56.642Z,77
2023-04-18T01:43:28.082Z,77
2023-04-18T01:44:00.530Z,77
2023-04-18T01:44:33.013Z,77
2023-04-18T01:45:10.273Z,77
2023-04-18T01:45:40.620Z,77
2023-04-18T01:46:15.015Z,78
2023-04-18T01:46:40.564Z,78
2023-04-18T01:47:18.448Z,78
2023-04-18T01:47:41.760Z,78
2023-04-18T01:48:05.934Z,78
2023-04-18T01:48:32.229Z,78
2023-04-18T01:49:04.897Z,78
2023-04-18T01:49:40.441Z,78
2023-04-18T01:50:08.276Z,78
2023-04-18T01:50:35.314Z,78
2023-04-18T01:50:57.947Z,78
2023-04-18T01:51:28.146Z,79
2023-04-18T01:52:00.110Z,79
2023-04-18T01:52:32.125Z,79
2023-04-18T01:53:04.050Z,79
2023-04-18T01:53:34.320Z,79
2023-04-18T01:53:53.080Z,79
2023-04-18T01:54:24.137Z,79
2023-04-18T01:54:41.235Z,79
2023-04-18T01:55:12.395Z,79
2023-04-18T01:55:34.394Z,79
2023-04-18T01:56:01.036Z,79
2023-04-18T01:56:32.122Z,79
2023-04-18T01:57:04.807Z,79
2023-04-18T01:57:34.348Z,79
2023-04-18T01:57:52.168Z,79
2023-04-18T01:58:25.281Z,79
2023-04-18T01:58:56.260Z,79
2023-04-18T01:59:28.972Z,79
2023-04-18T02:00:00.602Z,79
2023-04-18T02:00:32.171Z,79
2023-04-18T02:01:04.380Z,79
2023-04-18T02:01:34.386Z,79
2023-04-18T02:01:52.956Z,79
2023-04-18T02:02:24.479Z,80
2023-04-18T02:02:41.512Z,80
2023-04-18T02:03:13.126Z,80
2023-04-18T02:03:34.497Z,80
2023-04-18T02:04:00.203Z,80
2023-04-18T02:04:33.009Z,80
2023-04-18T02:05:04.297Z,80
2023-04-18T02:05:34.360Z,80
2023-04-18T02:05:53.070Z,80
2023-04-18T02:06:24.170Z,80
2023-04-18T02:06:41.267Z,80
2023-04-18T02:07:12.909Z,80
2023-04-18T02:07:34.440Z,80
2023-04-18T02:08:00.250Z,80
2023-04-18T02:08:32.135Z,80
2023-04-18T02:09:04.086Z,80
2023-04-18T02:09:34.382Z,79
2023-04-18T02:09:52.087Z,79
2023-04-18T02:10:25.083Z,79
2023-04-18T02:10:42.126Z,79
2023-04-18T02:11:12.100Z,79
2023-04-18T02:11:34.404Z,79
2023-04-18T02:12:00.895Z,79
2023-04-18T02:12:32.167Z,79
2023-04-18T02:13:04.129Z,79
2023-04-18T02:13:35.269Z,79
2023-04-18T02:13:52.191Z,79
2023-04-18T02:14:24.744Z,80
2023-04-18T02:14:42.642Z,80
2023-04-18T02:15:12.427Z,80
2023-04-18T02:15:34.429Z,80
2023-04-18T02:16:00.218Z,80
2023-04-18T02:16:32.103Z,80
2023-04-18T02:17:05.008Z,80
2023-04-18T02:17:34.401Z,80
2023-04-18T02:17:52.225Z,80
2023-04-18T02:18:24.788Z,80
2023-04-18T02:18:42.777Z,80
2023-04-18T02:19:12.168Z,80
2023-04-18T02:19:34.348Z,80
2023-04-18T02:20:00.381Z,80
2023-04-18T02:20:33.219Z,80
2023-04-18T02:21:04.124Z,80
2023-04-18T02:21:34.341Z,80
2023-04-18T02:21:52.902Z,80
2023-04-18T02:22:24.412Z,80
2023-04-18T02:22:41.306Z,80
2023-04-18T02:23:12.866Z,80
2023-04-18T02:23:34.705Z,80
2023-04-18T02:24:00.111Z,80
2023-04-18T02:24:33.097Z,80
2023-04-18T02:25:04.284Z,80
2023-04-18T02:25:34.616Z,80
2023-04-18T02:25:53.020Z,80
2023-04-18T02:26:24.101Z,80
2023-04-18T02:26:41.249Z,80
2023-04-18T02:27:12.882Z,80
2023-04-18T02:27:34.438Z,80
2023-04-18T02:28:00.422Z,80
2023-04-18T02:28:33.005Z,79
2023-04-18T02:29:04.083Z,79
2023-04-18T02:29:34.431Z,79
2023-04-18T02:29:53.038Z,79
2023-04-18T02:30:24.422Z,79
2023-04-18T02:30:41.292Z,79
2023-04-18T02:31:13.014Z,79
2023-04-18T02:31:34.457Z,79
2023-04-18T02:32:00.202Z,79
2023-04-18T02:32:33.120Z,79
2023-04-18T02:33:04.169Z,79
2023-04-18T02:33:34.424Z,79
2023-04-18T02:33:52.906Z,79
2023-04-18T02:34:24.138Z,80
2023-04-18T02:34:41.341Z,80
2023-04-18T02:35:13.057Z,80
2023-04-18T02:35:34.364Z,80
2023-04-18T02:36:00.153Z,80
2023-04-18T02:36:33.006Z,80
2023-04-18T02:37:04.226Z,80
2023-04-18T02:37:35.996Z,80
2023-04-18T02:38:08.080Z,80
2023-04-18T02:38:34.503Z,80
2023-04-18T02:38:56.967Z,80
2023-04-18T02:39:28.193Z,80
2023-04-18T02:40:01.117Z,80
2023-04-18T02:40:32.152Z,80
2023-04-18T02:41:04.166Z,80
2023-04-18T02:41:34.806Z,80
2023-04-18T02:41:52.115Z,80
2023-04-18T02:42:24.894Z,81
2023-04-18T02:42:43.631Z,81
2023-04-18T02:43:12.179Z,81
2023-04-18T02:43:34.535Z,81
2023-04-18T02:44:00.095Z,81
2023-04-18T02:44:32.991Z,81
2023-04-18T02:45:04.566Z,81
2023-04-18T02:45:35.266Z,81
2023-04-18T02:46:09.040Z,81
2023-04-18T02:46:34.443Z,81
2023-04-18T02:46:56.188Z,81
2023-04-18T02:47:30.387Z,81
2023-04-18T02:48:00.208Z,81
2023-04-18T02:48:32.221Z,81
2023-04-18T02:49:04.131Z,81
2023-04-18T02:49:34.378Z,81
2023-04-18T02:49:53.123Z,81
2023-04-18T02:50:24.484Z,81
2023-04-18T02:50:41.246Z,81
2023-04-18T02:51:12.151Z,81
2023-04-18T02:51:34.396Z,81
2023-04-18T02:52:01.066Z,81
2023-04-18T02:52:32.273Z,81
2023-04-18T02:53:04.113Z,81
2023-04-18T02:53:34.382Z,81
2023-04-18T02:53:52.118Z,81
2023-04-18T02:54:25.097Z,81
2023-04-18T02:54:42.969Z,81
2023-04-18T02:55:12.313Z,81
2023-04-18T02:55:34.380Z,81
2023-04-18T02:56:00.117Z,82
2023-04-18T02:56:32.152Z,82
2023-04-18T02:57:04.915Z,82
2023-04-18T02:57:34.394Z,82
2023-04-18T02:57:52.154Z,82
2023-04-18T02:58:24.975Z,82
2023-04-18T02:58:42.262Z,82
2023-04-18T02:59:12.125Z,82
2023-04-18T02:59:34.378Z,82
2023-04-18T03:00:01.675Z,82
2023-04-18T03:00:32.255Z,82
2023-04-18T03:01:05.022Z,82
2023-04-18T03:01:34.430Z,82
2023-04-18T03:01:52.359Z,82
2023-04-18T03:02:25.088Z,82
2023-04-18T03:02:42.312Z,82
2023-04-18T03:03:12.200Z,82
2023-04-18T03:03:34.400Z,82
2023-04-18T03:04:01.019Z,82
2023-04-18T03:04:32.148Z,82
2023-04-18T03:05:04.338Z,82
2023-04-18T03:05:34.419Z,82
2023-04-18T03:05:52.253Z,83
2023-04-18T03:06:24.748Z,83
2023-04-18T03:06:41.990Z,83
2023-04-18T03:07:12.241Z,83
2023-04-18T03:07:34.440Z,83
2023-04-18T03:08:01.052Z,83
2023-04-18T03:08:32.118Z,83
2023-04-18T03:09:05.129Z,83
2023-04-18T03:09:34.906Z,83
2023-04-18T03:09:52.136Z,83
2023-04-18T03:10:25.063Z,83
2023-04-18T03:10:42.910Z,83
2023-04-18T03:11:12.188Z,83
2023-04-18T03:11:34.342Z,83
2023-04-18T03:12:00.130Z,83
2023-04-18T03:12:32.205Z,83
2023-04-18T03:13:05.032Z,83
2023-04-18T03:13:34.358Z,83
2023-04-18T03:13:52.078Z,83
2023-04-18T03:14:24.160Z,83
2023-04-18T03:14:41.355Z,83
2023-04-18T03:15:13.234Z,83
2023-04-18T03:15:34.394Z,83
2023-04-18T03:16:00.261Z,83
2023-04-18T03:16:33.027Z,83
2023-04-18T03:17:04.138Z,83
2023-04-18T03:17:34.477Z,83
2023-04-18T03:17:53.077Z,83
2023-04-18T03:18:24.184Z,83
2023-04-18T03:18:41.352Z,83
2023-04-18T03:19:12.846Z,83
2023-04-18T03:19:34.422Z,83
2023-04-18T03:20:00.489Z,83
2023-04-18T03:20:33.001Z,83
2023-04-18T03:21:04.126Z,83
2023-04-18T03:21:34.956Z,84
2023-04-18T03:21:52.838Z,84
2023-04-18T03:22:24.332Z,84
2023-04-18T03:22:41.286Z,84
2023-04-18T03:23:12.161Z,84
2023-04-18T03:23:34.652Z,84
2023-04-18T03:24:01.122Z,84
2023-04-18T03:24:32.137Z,84
2023-04-18T03:25:04.408Z,84
2023-04-18T03:25:34.807Z,84
2023-04-18T03:25:52.297Z,84
2023-04-18T03:26:24.901Z,84
2023-04-18T03:26:42.187Z,84
2023-04-18T03:27:12.176Z,84
2023-04-18T03:27:34.408Z,84
2023-04-18T03:28:01.140Z,84
2023-04-18T03:28:32.154Z,84
2023-04-18T03:29:04.064Z,84
2023-04-18T03:29:34.350Z,84
2023-04-18T03:29:52.230Z,84
2023-04-18T03:30:25.202Z,84
2023-04-18T03:30:42.197Z,84
2023-04-18T03:31:12.219Z,84
2023-04-18T03:31:34.605Z,84
2023-04-18T03:32:01.185Z,85
2023-04-18T03:32:32.211Z,85
2023-04-18T03:33:04.194Z,85
2023-04-18T03:33:34.394Z,85
2023-04-18T03:33:53.028Z,85
2023-04-18T03:34:24.810Z,85
2023-04-18T03:34:42.071Z,85
2023-04-18T03:35:12.293Z,85
2023-04-18T03:35:34.442Z,85
2023-04-18T03:36:01.007Z,85
2023-04-18T03:36:32.110Z,85
2023-04-18T03:37:04.136Z,85
2023-04-18T03:37:34.642Z,85
2023-04-18T03:37:52.142Z,85
2023-04-18T03:38:24.906Z,85
2023-04-18T03:38:42.146Z,85
2023-04-18T03:39:12.181Z,85
2023-04-18T03:39:34.364Z,85
2023-04-18T03:40:01.254Z,85
2023-04-18T03:40:32.119Z,85
2023-04-18T03:41:04.112Z,85
2023-04-18T03:41:41.242Z,86
2023-04-18T03:42:08.067Z,86
2023-04-18T03:42:34.434Z,86
2023-04-18T03:42:56.161Z,86
2023-04-18T03:43:28.836Z,86
2023-04-18T03:44:00.158Z,86
2023-04-18T03:44:32.776Z,86
2023-04-18T03:45:04.396Z,86
2023-04-18T03:45:35.191Z,86
2023-04-18T03:46:08.121Z,86
2023-04-18T03:46:34.541Z,86
2023-04-18T03:46:57.034Z,86
2023-04-18T03:47:29.307Z,86
2023-04-18T03:48:01.966Z,86
2023-04-18T03:48:32.100Z,86
2023-04-18T03:49:04.916Z,86
2023-04-18T03:49:34.389Z,86
2023-04-18T03:49:52.206Z,86
2023-04-18T03:50:25.177Z,86
2023-04-18T03:50:42.196Z,86
2023-04-18T03:51:12.223Z,86
2023-04-18T03:51:34.344Z,86
2023-04-18T03:52:00.173Z,86
2023-04-18T03:52:33.059Z,86
2023-04-18T03:53:04.224Z,86
2023-04-18T03:53:34.389Z,86
2023-04-18T03:53:53.117Z,86
2023-04-18T03:54:24.192Z,86
2023-04-18T03:54:41.323Z,86
2023-04-18T03:55:13.068Z,86
2023-04-18T03:55:34.394Z,87
2023-04-18T03:56:00.136Z,86
2023-04-18T03:56:32.153Z,87
2023-04-18T03:57:04.152Z,87
2023-04-18T03:57:34.423Z,87
2023-04-18T03:57:52.201Z,87
2023-04-18T03:58:24.853Z,87
2023-04-18T03:58:42.174Z,87
2023-04-18T03:59:12.199Z,87
2023-04-18T03:59:34.907Z,87
2023-04-18T04:00:00.827Z,87
2023-04-18T04:00:33.297Z,87
2023-04-18T04:01:04.201Z,87
2023-04-18T04:01:34.340Z,87
2023-04-18T04:01:52.952Z,87
2023-04-18T04:02:24.553Z,87
2023-04-18T04:02:41.358Z,87
2023-04-18T04:03:12.329Z,87
2023-04-18T04:03:34.461Z,87
2023-04-18T04:04:00.991Z,87
2023-04-18T04:04:32.133Z,87
2023-04-18T04:05:04.551Z,87
2023-04-18T04:05:34.345Z,87
2023-04-18T04:05:52.404Z,88
2023-04-18T04:06:25.002Z,88
2023-04-18T04:06:42.259Z,88
2023-04-18T04:07:12.152Z,88
2023-04-18T04:07:34.452Z,88
2023-04-18T04:08:01.951Z,88
2023-04-18T04:08:32.331Z,88
2023-04-18T04:09:05.337Z,88
2023-04-18T04:09:35.308Z,88
2023-04-18T04:09:52.194Z,88
2023-04-18T04:10:25.063Z,88
2023-04-18T04:10:42.128Z,88
2023-04-18T04:11:12.945Z,88
2023-04-18T04:11:34.336Z,88
2023-04-18T04:12:01.018Z,88
2023-04-18T04:12:32.146Z,88
2023-04-18T04:13:04.168Z,88
2023-04-18T04:13:34.423Z,88
2023-04-18T04:13:52.165Z,88
2023-04-18T04:14:24.836Z,88
2023-04-18T04:14:42.034Z,88
2023-04-18T04:15:12.438Z,88
2023-04-18T04:15:34.390Z,88
2023-04-18T04:16:01.154Z,88
2023-04-18T04:16:32.319Z,88
2023-04-18T04:17:04.190Z,88
2023-04-18T04:17:34.402Z,88
2023-04-18T04:17:52.190Z,88
2023-04-18T04:18:24.965Z,88
2023-04-18T04:18:42.144Z,88
2023-04-18T04:19:12.174Z,88
2023-04-18T04:19:34.389Z,88
2023-04-18T04:20:00.624Z,88
2023-04-18T04:20:33.133Z,88
2023-04-18T04:21:04.116Z,88
2023-04-18T04:21:34.416Z,88
2023-04-18T04:21:53.004Z,88
2023-04-18T04:22:24.333Z,88
2023-04-18T04:22:41.446Z,88
2023-04-18T04:23:13.820Z,88
2023-04-18T04:23:34.356Z,88
2023-04-18T04:24:00.255Z,88
2023-04-18T04:24:32.229Z,88
2023-04-18T04:25:04.353Z,88
2023-04-18T04:25:34.330Z,88
2023-04-18T04:25:52.388Z,88
2023-04-18T04:26:25.096Z,88
2023-04-18T04:26:43.286Z,88
2023-04-18T04:27:12.226Z,88
2023-04-18T04:27:35.123Z,88
2023-04-18T04:28:00.209Z,88
2023-04-18T04:28:32.157Z,88
2023-04-18T04:29:04.977Z,88
2023-04-18T04:29:34.438Z,88
2023-04-18T04:29:52.182Z,88
2023-04-18T04:30:24.457Z,88
2023-04-18T04:30:41.402Z,88
2023-04-18T04:31:14.116Z,88
2023-04-18T04:31:34.997Z,88
2023-04-18T04:32:00.260Z,88
2023-04-18T04:32:32.218Z,88
2023-04-18T04:33:04.248Z,89
2023-04-18T04:33:34.520Z,89
2023-04-18T04:33:52.211Z,89
2023-04-18T04:34:25.956Z,89
2023-04-18T04:34:42.329Z,89
2023-04-18T04:35:12.564Z,89
2023-04-18T04:35:34.538Z,89
2023-04-18T04:36:01.205Z,89
2023-04-18T04:36:32.362Z,89
2023-04-18T04:37:04.242Z,89
2023-04-18T04:37:35.811Z,89
2023-04-18T04:37:52.305Z,89
2023-04-18T04:38:25.131Z,89
2023-04-18T04:38:42.280Z,89
2023-04-18T04:39:12.312Z,89
2023-04-18T04:39:34.539Z,89
2023-04-18T04:40:01.852Z,89
2023-04-18T04:40:32.379Z,89
2023-04-18T04:41:04.306Z,89
2023-04-18T04:41:34.535Z,89
2023-04-18T04:41:52.289Z,89
2023-04-18T04:42:25.064Z,89
2023-04-18T04:42:42.436Z,89
2023-04-18T04:43:12.363Z,89
2023-04-18T04:43:34.491Z,89
2023-04-18T04:44:01.756Z,89
2023-04-18T04:44:32.366Z,89
2023-04-18T04:45:04.588Z,89
2023-04-18T04:45:34.714Z,89
2023-04-18T04:46:08.435Z,89
2023-04-18T04:46:35.218Z,89
2023-04-18T04:46:56.456Z,89
2023-04-18T04:47:29.225Z,89
2023-04-18T04:48:00.585Z,89
2023-04-18T04:48:32.423Z,89
2023-04-18T04:49:04.232Z,89
2023-04-18T04:49:34.631Z,89
2023-04-18T04:49:53.101Z,89
2023-04-18T04:50:24.589Z,89
2023-04-18T04:50:41.504Z,89
2023-04-18T04:51:13.266Z,89
2023-04-18T04:51:34.537Z,89
2023-04-18T04:52:02.023Z,89
2023-04-18T04:52:33.511Z,89
2023-04-18T04:53:04.336Z,89
2023-04-18T04:53:34.640Z,89
2023-04-18T04:53:53.021Z,89
2023-04-18T04:54:24.329Z,89
2023-04-18T04:54:41.625Z,89
2023-04-18T04:55:13.248Z,89
2023-04-18T04:55:34.534Z,89
2023-04-18T04:56:00.375Z,89
2023-04-18T04:56:33.218Z,89
2023-04-18T04:57:04.346Z,89
2023-04-18T04:57:35.795Z,89
2023-04-18T04:57:52.309Z,89
2023-04-18T04:58:24.366Z,89
2023-04-18T04:58:42.851Z,89
2023-04-18T04:59:12.409Z,89
2023-04-18T04:59:34.539Z,89
2023-04-18T05:00:00.842Z,89
2023-04-18T05:00:32.390Z,89
2023-04-18T05:01:05.146Z,89
2023-04-18T05:01:34.507Z,89
2023-04-18T05:01:52.451Z,89
2023-04-18T05:02:25.236Z,89
2023-04-18T05:02:42.576Z,89
2023-04-18T05:03:12.545Z,89
2023-04-18T05:03:35.679Z,89
2023-04-18T05:04:01.280Z,89
2023-04-18T05:04:32.691Z,89
2023-04-18T05:05:04.517Z,89
2023-04-18T05:05:34.519Z,89
2023-04-18T05:05:52.469Z,89
2023-04-18T05:06:25.058Z,89
2023-04-18T05:06:42.478Z,89
2023-04-18T05:07:12.337Z,89
2023-04-18T05:07:34.709Z,89
2023-04-18T05:08:01.133Z,89
2023-04-18T05:08:32.316Z,89
2023-04-18T05:09:04.311Z,89
2023-04-18T05:09:34.627Z,89
2023-04-18T05:09:52.382Z,89
2023-04-18T05:10:25.253Z,89
2023-04-18T05:10:42.447Z,89
2023-04-18T05:11:12.367Z,89
2023-04-18T05:11:34.508Z,89
2023-04-18T05:12:01.136Z,89
2023-04-18T05:12:32.359Z,89
2023-04-18T05:13:05.123Z,89
2023-04-18T05:13:34.619Z,89
2023-04-18T05:13:52.355Z,89
2023-04-18T05:14:25.065Z,89
2023-04-18T05:14:42.422Z,89
2023-04-18T05:15:12.886Z,89
2023-04-18T05:15:34.591Z,89
2023-04-18T05:16:00.306Z,89
2023-04-18T05:16:33.216Z,89
2023-04-18T05:17:04.386Z,89
2023-04-18T05:17:34.483Z,89
2023-04-18T05:17:53.392Z,89
2023-04-18T05:18:24.419Z,89
2023-04-18T05:18:41.594Z,89
2023-04-18T05:19:13.393Z,89
2023-04-18T05:19:34.855Z,89
2023-04-18T05:20:01.172Z,89
2023-04-18T05:20:33.289Z,89
2023-04-18T05:21:04.392Z,89
2023-04-18T05:21:34.502Z,89
2023-04-18T05:21:53.136Z,89
2023-04-18T05:22:24.730Z,89
2023-04-18T05:22:41.665Z,89
2023-04-18T05:23:13.240Z,89
2023-04-18T05:23:35.114Z,89
2023-04-18T05:24:00.348Z,89
2023-04-18T05:24:33.287Z,89
2023-04-18T05:25:04.601Z,89
2023-04-18T05:25:35.855Z,89
2023-04-18T05:25:52.551Z,89
2023-04-18T05:26:24.454Z,89
2023-04-18T05:26:41.412Z,89
2023-04-18T05:27:13.210Z,89
2023-04-18T05:27:34.519Z,89
2023-04-18T05:28:00.411Z,89
2023-04-18T05:28:33.261Z,89
2023-04-18T05:29:04.323Z,89
2023-04-18T05:29:34.603Z,89
2023-04-18T05:29:53.120Z,89
2023-04-18T05:30:24.727Z,89
2023-04-18T05:30:41.484Z,89
2023-04-18T05:31:13.229Z,89
2023-04-18T05:31:34.597Z,89
2023-04-18T05:32:00.371Z,89
2023-04-18T05:32:33.482Z,89
2023-04-18T05:33:04.389Z,89
2023-04-18T05:33:34.555Z,89
2023-04-18T05:33:52.971Z,89
2023-04-18T05:34:24.497Z,89
2023-04-18T05:34:41.527Z,89
2023-04-18T05:35:13.365Z,89
2023-04-18T05:35:34.752Z,89
2023-04-18T05:36:00.430Z,89
2023-04-18T05:36:33.205Z,89
2023-04-18T05:37:04.326Z,89
2023-04-18T05:37:34.564Z,89
2023-04-18T05:37:53.084Z,89
2023-04-18T05:38:24.370Z,89
2023-04-18T05:38:41.407Z,89
2023-04-18T05:39:13.176Z,89
2023-04-18T05:39:34.464Z,89
2023-04-18T05:40:01.288Z,89
2023-04-18T05:40:33.228Z,89
2023-04-18T05:41:04.373Z,89
2023-04-18T05:41:34.558Z,89
2023-04-18T05:41:53.215Z,89
2023-04-18T05:42:24.514Z,89
2023-04-18T05:42:41.554Z,89
2023-04-18T05:43:13.106Z,89
2023-04-18T05:43:34.543Z,89
2023-04-18T05:44:05.476Z,89
2023-04-18T05:44:33.128Z,89
2023-04-18T05:45:04.659Z,89
2023-04-18T05:45:35.486Z,89
2023-04-18T05:46:08.430Z,89
2023-04-18T05:46:35.493Z,89
2023-04-18T05:46:57.046Z,89
2023-04-18T05:47:28.534Z,89
2023-04-18T05:48:00.751Z,89
2023-04-18T05:48:32.489Z,89
2023-04-18T05:49:04.290Z,89
2023-04-18T05:49:34.542Z,89
2023-04-18T05:49:52.417Z,89
2023-04-18T05:50:25.601Z,89
2023-04-18T05:50:42.597Z,89
2023-04-18T05:51:12.292Z,89
2023-04-18T05:51:34.452Z,89
2023-04-18T05:52:01.120Z,89
2023-04-18T05:52:32.464Z,89
2023-04-18T05:53:04.355Z,89
2023-04-18T05:53:34.526Z,89
2023-04-18T05:53:52.364Z,89
2023-04-18T05:54:25.104Z,89
2023-04-18T05:54:42.294Z,89
2023-04-18T05:55:12.530Z,89
2023-04-18T05:55:34.544Z,89
2023-04-18T05:56:00.393Z,89
2023-04-18T05:56:33.243Z,89
2023-04-18T05:57:04.865Z,89
2023-04-18T05:57:34.638Z,89
2023-04-18T05:57:53.042Z,89
2023-04-18T05:58:24.347Z,89
2023-04-18T05:58:41.523Z,89
2023-04-18T05:59:12.987Z,89
2023-04-18T05:59:34.529Z,89
2023-04-18T06:00:01.150Z,89
2023-04-18T06:00:33.302Z,89
2023-04-18T06:01:04.388Z,89
2023-04-18T06:01:35.684Z,88
2023-04-18T06:02:07.820Z,88
2023-04-18T06:02:24.684Z,88
2023-04-18T06:02:42.438Z,88
2023-04-18T06:03:12.641Z,88
2023-04-18T06:03:34.734Z,88
2023-04-18T06:04:01.305Z,88
2023-04-18T06:04:32.606Z,88
2023-04-18T06:05:04.705Z,88
2023-04-18T06:05:34.980Z,88
2023-04-18T06:05:52.548Z,88
2023-04-18T06:06:25.157Z,88
2023-04-18T06:06:42.434Z,88
2023-04-18T06:07:12.420Z,88
2023-04-18T06:07:34.681Z,88
2023-04-18T06:08:01.157Z,88
2023-04-18T06:08:32.482Z,88
2023-04-18T06:09:04.343Z,88
2023-04-18T06:09:34.563Z,88
2023-04-18T06:09:52.352Z,88
2023-04-18T06:10:25.369Z,88
2023-04-18T06:10:43.005Z,88
2023-04-18T06:11:12.371Z,88
2023-04-18T06:11:34.512Z,88
2023-04-18T06:12:01.070Z,88
2023-04-18T06:12:32.527Z,88
2023-04-18T06:13:05.117Z,88
2023-04-18T06:13:34.537Z,88
2023-04-18T06:13:52.382Z,88
2023-04-18T06:14:25.053Z,88
2023-04-18T06:14:42.386Z,88
2023-04-18T06:15:12.704Z,88
2023-04-18T06:15:34.977Z,88
2023-04-18T06:16:01.288Z,88
2023-04-18T06:16:32.527Z,88
2023-04-18T06:17:04.410Z,88
2023-04-18T06:17:34.523Z,88
2023-04-18T06:17:52.465Z,88
2023-04-18T06:18:25.095Z,88
2023-04-18T06:18:42.311Z,88
2023-04-18T06:19:12.405Z,88
2023-04-18T06:19:34.531Z,88
2023-04-18T06:20:01.646Z,88
2023-04-18T06:20:32.470Z,88
2023-04-18T06:21:04.366Z,88
2023-04-18T06:21:34.535Z,88
2023-04-18T06:21:52.342Z,88
2023-04-18T06:22:25.259Z,88
2023-04-18T06:22:42.395Z,88
2023-04-18T06:23:12.405Z,88
2023-04-18T06:23:34.509Z,88
2023-04-18T06:24:01.227Z,88
2023-04-18T06:24:32.374Z,88
2023-04-18T06:25:05.377Z,88
2023-04-18T06:25:34.530Z,88
2023-04-18T06:25:52.495Z,88
2023-04-18T06:26:25.158Z,88
2023-04-18T06:26:42.344Z,88
2023-04-18T06:27:20.689Z,88
2023-04-18T06:27:34.570Z,88
2023-04-18T06:28:01.157Z,88
2023-04-18T06:28:32.399Z,88
2023-04-18T06:29:04.391Z,88
2023-04-18T06:29:36.043Z,87